Главная страница
METAR-TAF:

METAR-TAF

Аэропорты :

Farmingdale, Нью-Йорк, США

широта: 40-44-03N, долгота: 073-25-01W, высота над уровнем моря: 24 м

Текущие метеонаблюдения

Эта сводка был подготовлена 57 минут назад, в 20:53 UTC
Ветер 13 Узел от южный
Температура 6°C
Влажность 70%
Давление 1021 hPa
Видимость: 16.1 км
Сплошная облачность на высоте 5000 фута

METAR: KFRG 232053Z 18013KT 10SM OVC050 06/01 A3015 RMK AO2 SLP210 T00560006 56030

Время: 16:50 (21:50 UTC)


TAF: отсутствует

Метеонаблюдения и прогнозы для более 4000 аэропортов (сводки METAR и TAF).

Имеющиеся станции представлены на карте желтыми и красными точками.

Чтобы увидеть название станции, наведите на нее мышь.

Затем щелкните, чтобы увидеть метеонаблюдения и метеопрогнозы.

Управление картой: чтобы увеличить масштаб, щелкните зеленые кнопки с черным крестиком; чтобы уменьшить масштаб, щелкните зеленую кнопку с тире; для просмотра соседних карт щелкайте зеленые стрелки.


METAR-TAF: